sensor_id;sensor_type;location;lat;lon;timestamp;P1;durP1;ratioP1;P2;durP2;ratioP2
38499;SDS011;24269;51.894;4.622;2022-11-23T00:00:28;14.82;;;7.18;;
38499;SDS011;24269;51.894;4.622;2022-11-23T00:02:58;14.13;;;6.13;;
38499;SDS011;24269;51.894;4.622;2022-11-23T00:05:25;13.18;;;6.18;;
38499;SDS011;24269;51.894;4.622;2022-11-23T00:07:52;15.02;;;6.15;;
38499;SDS011;24269;51.894;4.622;2022-11-23T00:10:17;15.60;;;6.47;;
38499;SDS011;24269;51.894;4.622;2022-11-23T00:12:43;17.48;;;6.72;;
38499;SDS011;24269;51.894;4.622;2022-11-23T00:15:10;11.68;;;5.40;;
38499;SDS011;24269;51.894;4.622;2022-11-23T00:17:37;15.68;;;5.78;;
38499;SDS011;24269;51.894;4.622;2022-11-23T00:20:03;12.27;;;6.10;;
38499;SDS011;24269;51.894;4.622;2022-11-23T00:22:29;11.80;;;6.00;;
38499;SDS011;24269;51.894;4.622;2022-11-23T00:24:55;13.43;;;5.70;;
38499;SDS011;24269;51.894;4.622;2022-11-23T00:27:20;13.60;;;6.45;;
38499;SDS011;24269;51.894;4.622;2022-11-23T00:29:46;11.68;;;5.97;;
38499;SDS011;24269;51.894;4.622;2022-11-23T00:32:12;12.93;;;5.72;;
38499;SDS011;24269;51.894;4.622;2022-11-23T00:34:37;10.45;;;5.07;;
38499;SDS011;24269;51.894;4.622;2022-11-23T00:37:03;16.65;;;5.95;;
38499;SDS011;24269;51.894;4.622;2022-11-23T00:39:28;14.23;;;6.00;;
38499;SDS011;24269;51.894;4.622;2022-11-23T00:41:54;13.50;;;5.30;;
38499;SDS011;24269;51.894;4.622;2022-11-23T00:44:19;15.20;;;5.45;;
38499;SDS011;24269;51.894;4.622;2022-11-23T00:46:45;14.82;;;5.63;;
38499;SDS011;24269;51.894;4.622;2022-11-23T00:49:11;9.30;;;4.72;;
38499;SDS011;24269;51.894;4.622;2022-11-23T00:51:36;18.25;;;5.70;;
38499;SDS011;24269;51.894;4.622;2022-11-23T00:54:03;14.82;;;5.50;;
38499;SDS011;24269;51.894;4.622;2022-11-23T00:56:30;10.73;;;5.28;;
38499;SDS011;24269;51.894;4.622;2022-11-23T00:58:57;13.50;;;5.35;;
38499;SDS011;24269;51.894;4.622;2022-11-23T01:01:25;14.55;;;5.30;;
38499;SDS011;24269;51.894;4.622;2022-11-23T01:03:53;14.68;;;4.80;;
38499;SDS011;24269;51.894;4.622;2022-11-23T01:06:23;11.88;;;4.60;;
38499;SDS011;24269;51.894;4.622;2022-11-23T01:09:00;11.73;;;5.03;;
38499;SDS011;24269;51.894;4.622;2022-11-23T01:11:36;15.85;;;4.97;;
38499;SDS011;24269;51.894;4.622;2022-11-23T01:14:02;14.95;;;4.88;;
38499;SDS011;24269;51.894;4.622;2022-11-23T01:16:30;9.10;;;4.75;;
38499;SDS011;24269;51.894;4.622;2022-11-23T01:18:58;9.27;;;4.30;;
38499;SDS011;24269;51.894;4.622;2022-11-23T01:21:30;11.07;;;3.55;;
38499;SDS011;24269;51.894;4.622;2022-11-23T01:23:56;10.57;;;4.18;;
38499;SDS011;24269;51.894;4.622;2022-11-23T01:26:22;9.15;;;4.03;;
38499;SDS011;24269;51.894;4.622;2022-11-23T01:28:48;12.98;;;4.43;;
38499;SDS011;24269;51.894;4.622;2022-11-23T01:31:15;11.77;;;4.63;;
38499;SDS011;24269;51.894;4.622;2022-11-23T01:33:43;12.68;;;4.50;;
38499;SDS011;24269;51.894;4.622;2022-11-23T01:36:13;9.68;;;3.72;;
38499;SDS011;24269;51.894;4.622;2022-11-23T01:38:41;10.18;;;4.43;;
38499;SDS011;24269;51.894;4.622;2022-11-23T01:41:08;13.10;;;4.82;;
38499;SDS011;24269;51.894;4.622;2022-11-23T01:43:38;9.68;;;4.03;;
38499;SDS011;24269;51.894;4.622;2022-11-23T01:46:04;11.23;;;4.20;;
38499;SDS011;24269;51.894;4.622;2022-11-23T01:48:37;12.20;;;3.97;;
38499;SDS011;24269;51.894;4.622;2022-11-23T01:51:28;16.73;;;5.32;;
38499;SDS011;24269;51.894;4.622;2022-11-23T01:53:59;10.68;;;3.95;;
38499;SDS011;24269;51.894;4.622;2022-11-23T01:56:29;14.23;;;4.78;;
38499;SDS011;24269;51.894;4.622;2022-11-23T01:59:00;9.43;;;3.85;;
38499;SDS011;24269;51.894;4.622;2022-11-23T02:01:28;10.35;;;3.70;;
38499;SDS011;24269;51.894;4.622;2022-11-23T02:03:55;11.88;;;4.03;;
38499;SDS011;24269;51.894;4.622;2022-11-23T02:06:24;8.38;;;3.78;;
38499;SDS011;24269;51.894;4.622;2022-11-23T02:08:49;11.98;;;3.92;;
38499;SDS011;24269;51.894;4.622;2022-11-23T02:11:16;6.60;;;3.38;;
38499;SDS011;24269;51.894;4.622;2022-11-23T02:13:42;8.45;;;3.67;;
38499;SDS011;24269;51.894;4.622;2022-11-23T02:16:09;10.45;;;3.70;;
38499;SDS011;24269;51.894;4.622;2022-11-23T02:18:35;8.57;;;3.90;;
38499;SDS011;24269;51.894;4.622;2022-11-23T02:21:04;8.30;;;3.35;;
38499;SDS011;24269;51.894;4.622;2022-11-23T02:23:36;8.15;;;3.60;;
38499;SDS011;24269;51.894;4.622;2022-11-23T02:28:42;11.48;;;4.82;;
38499;SDS011;24269;51.894;4.622;2022-11-23T02:31:28;12.98;;;5.38;;
38499;SDS011;24269;51.894;4.622;2022-11-23T02:33:54;10.90;;;5.30;;
38499;SDS011;24269;51.894;4.622;2022-11-23T02:39:06;13.05;;;5.93;;
38499;SDS011;24269;51.894;4.622;2022-11-23T02:41:46;15.00;;;6.47;;
38499;SDS011;24269;51.894;4.622;2022-11-23T02:44:22;14.25;;;6.03;;
38499;SDS011;24269;51.894;4.622;2022-11-23T02:47:01;12.93;;;6.57;;
38499;SDS011;24269;51.894;4.622;2022-11-23T02:49:27;15.68;;;6.45;;
38499;SDS011;24269;51.894;4.622;2022-11-23T02:51:53;11.43;;;6.25;;
38499;SDS011;24269;51.894;4.622;2022-11-23T02:54:19;15.95;;;6.78;;
38499;SDS011;24269;51.894;4.622;2022-11-23T02:56:44;14.55;;;6.93;;
38499;SDS011;24269;51.894;4.622;2022-11-23T02:59:10;16.45;;;6.88;;
38499;SDS011;24269;51.894;4.622;2022-11-23T03:01:36;12.98;;;6.35;;
38499;SDS011;24269;51.894;4.622;2022-11-23T03:04:04;13.05;;;6.65;;
38499;SDS011;24269;51.894;4.622;2022-11-23T03:06:29;14.07;;;6.78;;
38499;SDS011;24269;51.894;4.622;2022-11-23T03:08:55;11.35;;;6.03;;
38499;SDS011;24269;51.894;4.622;2022-11-23T03:11:21;12.05;;;6.40;;
38499;SDS011;24269;51.894;4.622;2022-11-23T03:13:46;13.80;;;6.80;;
38499;SDS011;24269;51.894;4.622;2022-11-23T03:16:12;14.55;;;6.32;;
38499;SDS011;24269;51.894;4.622;2022-11-23T03:18:37;15.32;;;7.07;;
38499;SDS011;24269;51.894;4.622;2022-11-23T03:21:06;15.05;;;6.88;;
38499;SDS011;24269;51.894;4.622;2022-11-23T03:23:34;14.20;;;6.40;;
38499;SDS011;24269;51.894;4.622;2022-11-23T03:26:01;16.60;;;6.32;;
38499;SDS011;24269;51.894;4.622;2022-11-23T03:28:27;13.63;;;6.80;;
38499;SDS011;24269;51.894;4.622;2022-11-23T03:30:53;13.98;;;7.20;;
38499;SDS011;24269;51.894;4.622;2022-11-23T03:33:18;13.77;;;6.95;;
38499;SDS011;24269;51.894;4.622;2022-11-23T03:35:44;14.18;;;7.28;;
38499;SDS011;24269;51.894;4.622;2022-11-23T03:38:10;13.65;;;7.10;;
38499;SDS011;24269;51.894;4.622;2022-11-23T03:40:36;12.82;;;6.65;;
38499;SDS011;24269;51.894;4.622;2022-11-23T03:43:02;12.82;;;6.93;;
38499;SDS011;24269;51.894;4.622;2022-11-23T03:45:27;19.58;;;7.78;;
38499;SDS011;24269;51.894;4.622;2022-11-23T03:47:53;14.38;;;7.00;;
38499;SDS011;24269;51.894;4.622;2022-11-23T03:50:18;14.23;;;7.03;;
38499;SDS011;24269;51.894;4.622;2022-11-23T03:52:44;14.02;;;7.95;;
38499;SDS011;24269;51.894;4.622;2022-11-23T03:55:12;20.40;;;7.72;;
38499;SDS011;24269;51.894;4.622;2022-11-23T03:57:37;15.40;;;7.80;;
38499;SDS011;24269;51.894;4.622;2022-11-23T04:00:03;13.75;;;7.68;;
38499;SDS011;24269;51.894;4.622;2022-11-23T04:02:29;13.57;;;7.65;;
38499;SDS011;24269;51.894;4.622;2022-11-23T04:04:54;15.73;;;7.40;;
38499;SDS011;24269;51.894;4.622;2022-11-23T04:07:20;15.85;;;7.82;;
38499;SDS011;24269;51.894;4.622;2022-11-23T04:09:46;15.23;;;7.50;;
38499;SDS011;24269;51.894;4.622;2022-11-23T04:12:11;13.43;;;6.47;;
38499;SDS011;24269;51.894;4.622;2022-11-23T04:14:37;12.02;;;6.40;;
38499;SDS011;24269;51.894;4.622;2022-11-23T04:17:02;12.80;;;6.57;;
38499;SDS011;24269;51.894;4.622;2022-11-23T04:19:28;10.70;;;6.10;;
38499;SDS011;24269;51.894;4.622;2022-11-23T04:21:54;14.55;;;5.60;;
38499;SDS011;24269;51.894;4.622;2022-11-23T04:24:20;11.45;;;4.97;;
38499;SDS011;24269;51.894;4.622;2022-11-23T04:26:45;8.40;;;4.35;;
38499;SDS011;24269;51.894;4.622;2022-11-23T04:29:11;9.23;;;3.97;;
38499;SDS011;24269;51.894;4.622;2022-11-23T04:31:36;9.13;;;3.78;;
38499;SDS011;24269;51.894;4.622;2022-11-23T04:34:02;10.50;;;3.95;;
38499;SDS011;24269;51.894;4.622;2022-11-23T04:36:28;8.75;;;3.80;;
38499;SDS011;24269;51.894;4.622;2022-11-23T04:38:53;9.80;;;4.13;;
38499;SDS011;24269;51.894;4.622;2022-11-23T04:41:19;11.35;;;3.95;;
38499;SDS011;24269;51.894;4.622;2022-11-23T04:43:46;10.45;;;4.07;;
38499;SDS011;24269;51.894;4.622;2022-11-23T04:46:12;10.32;;;4.05;;
38499;SDS011;24269;51.894;4.622;2022-11-23T04:48:38;12.75;;;5.28;;
38499;SDS011;24269;51.894;4.622;2022-11-23T04:51:04;8.05;;;4.53;;
38499;SDS011;24269;51.894;4.622;2022-11-23T04:53:30;9.13;;;4.45;;
38499;SDS011;24269;51.894;4.622;2022-11-23T04:55:55;11.02;;;4.72;;
38499;SDS011;24269;51.894;4.622;2022-11-23T04:58:21;12.63;;;4.93;;
38499;SDS011;24269;51.894;4.622;2022-11-23T05:00:47;11.38;;;4.82;;
38499;SDS011;24269;51.894;4.622;2022-11-23T05:03:13;11.65;;;5.07;;
38499;SDS011;24269;51.894;4.622;2022-11-23T05:05:39;10.63;;;5.07;;
38499;SDS011;24269;51.894;4.622;2022-11-23T05:08:05;9.48;;;4.90;;
38499;SDS011;24269;51.894;4.622;2022-11-23T05:10:32;8.55;;;4.57;;
38499;SDS011;24269;51.894;4.622;2022-11-23T05:12:58;10.80;;;4.60;;
38499;SDS011;24269;51.894;4.622;2022-11-23T05:15:23;10.45;;;3.95;;
38499;SDS011;24269;51.894;4.622;2022-11-23T05:17:49;11.00;;;4.15;;
38499;SDS011;24269;51.894;4.622;2022-11-23T05:20:15;12.95;;;3.22;;
38499;SDS011;24269;51.894;4.622;2022-11-23T05:22:41;9.32;;;2.97;;
38499;SDS011;24269;51.894;4.622;2022-11-23T05:25:06;7.10;;;2.33;;
38499;SDS011;24269;51.894;4.622;2022-11-23T05:27:32;6.93;;;2.63;;
38499;SDS011;24269;51.894;4.622;2022-11-23T05:29:59;4.03;;;1.80;;
38499;SDS011;24269;51.894;4.622;2022-11-23T05:32:25;6.13;;;2.10;;
38499;SDS011;24269;51.894;4.622;2022-11-23T05:34:50;7.65;;;1.75;;
38499;SDS011;24269;51.894;4.622;2022-11-23T05:37:16;6.32;;;1.50;;
38499;SDS011;24269;51.894;4.622;2022-11-23T05:39:41;7.50;;;1.63;;
38499;SDS011;24269;51.894;4.622;2022-11-23T05:42:07;4.93;;;1.50;;
38499;SDS011;24269;51.894;4.622;2022-11-23T05:44:33;4.18;;;1.20;;
38499;SDS011;24269;51.894;4.622;2022-11-23T05:46:59;9.70;;;1.38;;
38499;SDS011;24269;51.894;4.622;2022-11-23T05:49:24;10.43;;;1.90;;
38499;SDS011;24269;51.894;4.622;2022-11-23T05:51:50;3.03;;;1.10;;
38499;SDS011;24269;51.894;4.622;2022-11-23T05:54:15;3.97;;;1.42;;
38499;SDS011;24269;51.894;4.622;2022-11-23T05:56:41;8.05;;;2.35;;
38499;SDS011;24269;51.894;4.622;2022-11-23T05:59:07;4.28;;;1.33;;
38499;SDS011;24269;51.894;4.622;2022-11-23T06:01:33;7.68;;;1.63;;
38499;SDS011;24269;51.894;4.622;2022-11-23T06:03:58;4.43;;;1.20;;
38499;SDS011;24269;51.894;4.622;2022-11-23T06:06:24;6.15;;;1.48;;
38499;SDS011;24269;51.894;4.622;2022-11-23T06:08:49;8.40;;;1.48;;
38499;SDS011;24269;51.894;4.622;2022-11-23T06:11:15;6.95;;;1.35;;
38499;SDS011;24269;51.894;4.622;2022-11-23T06:13:41;6.68;;;1.50;;
38499;SDS011;24269;51.894;4.622;2022-11-23T06:16:10;13.10;;;2.05;;
38499;SDS011;24269;51.894;4.622;2022-11-23T06:18:35;5.88;;;2.03;;
38499;SDS011;24269;51.894;4.622;2022-11-23T06:21:01;6.57;;;1.58;;
38499;SDS011;24269;51.894;4.622;2022-11-23T06:23:26;5.53;;;1.55;;
38499;SDS011;24269;51.894;4.622;2022-11-23T06:25:52;5.95;;;1.30;;
38499;SDS011;24269;51.894;4.622;2022-11-23T06:28:18;5.60;;;1.35;;
38499;SDS011;24269;51.894;4.622;2022-11-23T06:30:43;4.18;;;1.10;;
38499;SDS011;24269;51.894;4.622;2022-11-23T06:33:09;10.23;;;1.50;;
38499;SDS011;24269;51.894;4.622;2022-11-23T06:35:35;8.50;;;1.90;;
38499;SDS011;24269;51.894;4.622;2022-11-23T06:38:00;11.52;;;1.95;;
38499;SDS011;24269;51.894;4.622;2022-11-23T06:40:26;6.40;;;1.60;;
38499;SDS011;24269;51.894;4.622;2022-11-23T06:42:56;6.75;;;1.38;;
38499;SDS011;24269;51.894;4.622;2022-11-23T06:45:25;3.58;;;1.00;;
38499;SDS011;24269;51.894;4.622;2022-11-23T06:47:54;11.45;;;1.63;;
38499;SDS011;24269;51.894;4.622;2022-11-23T06:50:20;9.15;;;1.80;;
38499;SDS011;24269;51.894;4.622;2022-11-23T06:52:46;5.72;;;1.10;;
38499;SDS011;24269;51.894;4.622;2022-11-23T06:55:12;5.78;;;1.50;;
38499;SDS011;24269;51.894;4.622;2022-11-23T06:57:38;6.90;;;1.55;;
38499;SDS011;24269;51.894;4.622;2022-11-23T07:00:03;9.35;;;1.58;;
38499;SDS011;24269;51.894;4.622;2022-11-23T07:02:29;9.43;;;1.65;;
38499;SDS011;24269;51.894;4.622;2022-11-23T07:04:55;7.40;;;1.98;;
38499;SDS011;24269;51.894;4.622;2022-11-23T07:07:20;9.95;;;1.92;;
38499;SDS011;24269;51.894;4.622;2022-11-23T07:09:46;9.82;;;1.58;;
38499;SDS011;24269;51.894;4.622;2022-11-23T07:12:12;7.30;;;1.55;;
38499;SDS011;24269;51.894;4.622;2022-11-23T07:14:37;5.95;;;1.40;;
38499;SDS011;24269;51.894;4.622;2022-11-23T07:17:03;9.98;;;2.30;;
38499;SDS011;24269;51.894;4.622;2022-11-23T07:19:29;4.00;;;1.25;;
38499;SDS011;24269;51.894;4.622;2022-11-23T07:21:54;6.85;;;1.83;;
38499;SDS011;24269;51.894;4.622;2022-11-23T07:24:20;10.60;;;1.50;;
38499;SDS011;24269;51.894;4.622;2022-11-23T07:26:45;10.52;;;2.00;;
38499;SDS011;24269;51.894;4.622;2022-11-23T07:29:11;8.63;;;1.63;;
38499;SDS011;24269;51.894;4.622;2022-11-23T07:31:37;7.32;;;1.67;;
38499;SDS011;24269;51.894;4.622;2022-11-23T07:34:02;7.97;;;1.90;;
38499;SDS011;24269;51.894;4.622;2022-11-23T07:36:29;6.10;;;1.40;;
38499;SDS011;24269;51.894;4.622;2022-11-23T07:38:54;13.52;;;2.00;;
38499;SDS011;24269;51.894;4.622;2022-11-23T07:41:20;9.23;;;1.60;;
38499;SDS011;24269;51.894;4.622;2022-11-23T07:43:46;11.05;;;2.05;;
38499;SDS011;24269;51.894;4.622;2022-11-23T07:46:12;9.40;;;1.40;;
38499;SDS011;24269;51.894;4.622;2022-11-23T07:48:37;11.20;;;1.77;;
38499;SDS011;24269;51.894;4.622;2022-11-23T07:51:03;4.65;;;1.35;;
38499;SDS011;24269;51.894;4.622;2022-11-23T07:53:29;9.35;;;1.48;;
38499;SDS011;24269;51.894;4.622;2022-11-23T07:55:55;8.85;;;1.73;;
38499;SDS011;24269;51.894;4.622;2022-11-23T07:58:22;14.15;;;1.60;;
38499;SDS011;24269;51.894;4.622;2022-11-23T08:00:49;7.97;;;1.33;;
38499;SDS011;24269;51.894;4.622;2022-11-23T08:03:14;3.38;;;1.00;;
38499;SDS011;24269;51.894;4.622;2022-11-23T08:05:40;7.35;;;1.48;;
38499;SDS011;24269;51.894;4.622;2022-11-23T08:08:06;6.65;;;1.40;;
38499;SDS011;24269;51.894;4.622;2022-11-23T08:10:31;7.22;;;1.48;;
38499;SDS011;24269;51.894;4.622;2022-11-23T08:12:58;8.00;;;1.02;;
38499;SDS011;24269;51.894;4.622;2022-11-23T08:15:28;8.30;;;1.45;;
38499;SDS011;24269;51.894;4.622;2022-11-23T08:17:55;9.40;;;1.35;;
38499;SDS011;24269;51.894;4.622;2022-11-23T08:20:25;12.20;;;1.75;;
38499;SDS011;24269;51.894;4.622;2022-11-23T08:22:52;7.60;;;1.90;;
38499;SDS011;24269;51.894;4.622;2022-11-23T08:25:20;8.52;;;1.67;;
38499;SDS011;24269;51.894;4.622;2022-11-23T08:27:59;9.13;;;1.33;;
38499;SDS011;24269;51.894;4.622;2022-11-23T08:30:27;8.20;;;1.60;;
38499;SDS011;24269;51.894;4.622;2022-11-23T08:32:54;4.35;;;1.23;;
38499;SDS011;24269;51.894;4.622;2022-11-23T08:35:20;6.25;;;1.35;;
38499;SDS011;24269;51.894;4.622;2022-11-23T08:37:46;5.50;;;1.40;;
38499;SDS011;24269;51.894;4.622;2022-11-23T08:40:12;9.35;;;1.90;;
38499;SDS011;24269;51.894;4.622;2022-11-23T08:42:38;8.48;;;1.67;;
38499;SDS011;24269;51.894;4.622;2022-11-23T08:45:04;6.45;;;1.55;;
38499;SDS011;24269;51.894;4.622;2022-11-23T08:47:30;6.25;;;1.40;;
38499;SDS011;24269;51.894;4.622;2022-11-23T08:49:56;9.40;;;1.40;;
38499;SDS011;24269;51.894;4.622;2022-11-23T08:52:22;6.13;;;1.35;;
38499;SDS011;24269;51.894;4.622;2022-11-23T08:54:48;6.72;;;1.05;;
38499;SDS011;24269;51.894;4.622;2022-11-23T08:57:13;7.03;;;1.60;;
38499;SDS011;24269;51.894;4.622;2022-11-23T08:59:39;9.05;;;1.77;;
38499;SDS011;24269;51.894;4.622;2022-11-23T09:02:05;7.15;;;1.63;;
38499;SDS011;24269;51.894;4.622;2022-11-23T09:04:30;4.05;;;1.30;;
38499;SDS011;24269;51.894;4.622;2022-11-23T09:06:56;6.93;;;1.58;;
38499;SDS011;24269;51.894;4.622;2022-11-23T09:09:21;5.95;;;1.70;;
38499;SDS011;24269;51.894;4.622;2022-11-23T09:11:47;6.68;;;1.70;;
38499;SDS011;24269;51.894;4.622;2022-11-23T09:14:13;7.15;;;1.60;;
38499;SDS011;24269;51.894;4.622;2022-11-23T09:16:39;9.70;;;1.35;;
38499;SDS011;24269;51.894;4.622;2022-11-23T09:19:05;7.72;;;1.17;;
38499;SDS011;24269;51.894;4.622;2022-11-23T09:21:32;5.45;;;1.10;;
38499;SDS011;24269;51.894;4.622;2022-11-23T09:23:59;11.18;;;1.75;;
38499;SDS011;24269;51.894;4.622;2022-11-23T09:26:25;6.97;;;1.20;;
38499;SDS011;24269;51.894;4.622;2022-11-23T09:28:51;14.60;;;3.20;;
38499;SDS011;24269;51.894;4.622;2022-11-23T09:31:17;5.93;;;1.45;;
38499;SDS011;24269;51.894;4.622;2022-11-23T09:33:43;10.45;;;1.42;;
38499;SDS011;24269;51.894;4.622;2022-11-23T09:36:08;11.30;;;1.73;;
38499;SDS011;24269;51.894;4.622;2022-11-23T09:38:34;6.00;;;1.42;;
38499;SDS011;24269;51.894;4.622;2022-11-23T09:43:50;7.68;;;1.70;;
38499;SDS011;24269;51.894;4.622;2022-11-23T09:49:19;5.35;;;1.10;;
38499;SDS011;24269;51.894;4.622;2022-11-23T09:51:46;5.38;;;1.15;;
38499;SDS011;24269;51.894;4.622;2022-11-23T09:54:30;4.35;;;1.05;;
38499;SDS011;24269;51.894;4.622;2022-11-23T09:56:59;6.70;;;1.35;;
38499;SDS011;24269;51.894;4.622;2022-11-23T09:59:26;7.45;;;1.42;;
38499;SDS011;24269;51.894;4.622;2022-11-23T10:02:09;8.90;;;1.38;;
38499;SDS011;24269;51.894;4.622;2022-11-23T10:04:59;7.43;;;1.42;;
38499;SDS011;24269;51.894;4.622;2022-11-23T10:15:14;6.78;;;1.27;;
38499;SDS011;24269;51.894;4.622;2022-11-23T10:23:23;7.07;;;1.73;;
38499;SDS011;24269;51.894;4.622;2022-11-23T10:26:21;9.70;;;1.45;;
38499;SDS011;24269;51.894;4.622;2022-11-23T10:28:54;5.88;;;1.38;;
38499;SDS011;24269;51.894;4.622;2022-11-23T10:31:22;4.97;;;1.23;;
38499;SDS011;24269;51.894;4.622;2022-11-23T10:36:36;8.75;;;1.67;;
38499;SDS011;24269;51.894;4.622;2022-11-23T10:39:07;4.20;;;1.45;;
38499;SDS011;24269;51.894;4.622;2022-11-23T10:41:43;7.90;;;1.70;;
38499;SDS011;24269;51.894;4.622;2022-11-23T10:44:14;6.88;;;2.35;;
38499;SDS011;24269;51.894;4.622;2022-11-23T10:46:49;10.70;;;1.90;;
38499;SDS011;24269;51.894;4.622;2022-11-23T10:51:47;6.95;;;1.55;;
38499;SDS011;24269;51.894;4.622;2022-11-23T10:54:32;5.28;;;1.50;;
38499;SDS011;24269;51.894;4.622;2022-11-23T10:57:03;6.80;;;1.50;;
38499;SDS011;24269;51.894;4.622;2022-11-23T10:59:55;9.95;;;1.52;;
38499;SDS011;24269;51.894;4.622;2022-11-23T11:03:32;5.47;;;1.80;;
38499;SDS011;24269;51.894;4.622;2022-11-23T11:05:59;8.23;;;1.40;;
38499;SDS011;24269;51.894;4.622;2022-11-23T11:08:27;7.15;;;1.63;;
38499;SDS011;24269;51.894;4.622;2022-11-23T11:16:09;8.02;;;1.52;;
38499;SDS011;24269;51.894;4.622;2022-11-23T11:18:46;7.65;;;1.25;;
38499;SDS011;24269;51.894;4.622;2022-11-23T11:21:19;5.47;;;1.40;;
38499;SDS011;24269;51.894;4.622;2022-11-23T11:23:59;3.53;;;1.20;;
38499;SDS011;24269;51.894;4.622;2022-11-23T11:26:28;6.32;;;1.60;;
38499;SDS011;24269;51.894;4.622;2022-11-23T11:28:56;4.45;;;1.30;;
38499;SDS011;24269;51.894;4.622;2022-11-23T11:31:30;6.18;;;1.50;;
38499;SDS011;24269;51.894;4.622;2022-11-23T11:36:54;7.60;;;1.35;;
38499;SDS011;24269;51.894;4.622;2022-11-23T11:40:06;4.70;;;1.30;;
38499;SDS011;24269;51.894;4.622;2022-11-23T11:42:17;4.75;;;1.60;;
38499;SDS011;24269;51.894;4.622;2022-11-23T11:44:57;6.18;;;1.55;;
38499;SDS011;24269;51.894;4.622;2022-11-23T11:47:42;5.75;;;1.50;;
38499;SDS011;24269;51.894;4.622;2022-11-23T11:50:32;7.55;;;1.50;;
38499;SDS011;24269;51.894;4.622;2022-11-23T11:53:06;8.60;;;1.80;;
38499;SDS011;24269;51.894;4.622;2022-11-23T11:58:09;5.30;;;1.15;;
38499;SDS011;24269;51.894;4.622;2022-11-23T12:00:38;5.20;;;1.25;;
38499;SDS011;24269;51.894;4.622;2022-11-23T12:03:17;7.78;;;1.17;;
38499;SDS011;24269;51.894;4.622;2022-11-23T12:05:54;8.23;;;1.25;;
38499;SDS011;24269;51.894;4.622;2022-11-23T12:08:32;3.85;;;1.60;;
38499;SDS011;24269;51.894;4.622;2022-11-23T12:11:00;7.43;;;1.20;;
38499;SDS011;24269;51.894;4.622;2022-11-23T12:30:02;6.65;;;1.35;;
38499;SDS011;24269;51.894;4.622;2022-11-23T12:33:01;4.18;;;0.95;;
38499;SDS011;24269;51.894;4.622;2022-11-23T12:35:53;3.42;;;1.10;;
38499;SDS011;24269;51.894;4.622;2022-11-23T12:38:42;4.03;;;1.00;;
38499;SDS011;24269;51.894;4.622;2022-11-23T12:44:38;4.53;;;1.00;;
38499;SDS011;24269;51.894;4.622;2022-11-23T12:55:17;2.65;;;1.30;;
38499;SDS011;24269;51.894;4.622;2022-11-23T12:58:21;4.88;;;1.00;;
38499;SDS011;24269;51.894;4.622;2022-11-23T13:00:56;2.63;;;0.88;;
38499;SDS011;24269;51.894;4.622;2022-11-23T13:09:26;3.47;;;0.88;;
38499;SDS011;24269;51.894;4.622;2022-11-23T13:17:39;2.80;;;1.05;;
38499;SDS011;24269;51.894;4.622;2022-11-23T13:22:54;4.25;;;1.38;;
38499;SDS011;24269;51.894;4.622;2022-11-23T13:25:26;3.00;;;1.23;;
38499;SDS011;24269;51.894;4.622;2022-11-23T13:27:54;5.57;;;1.08;;
38499;SDS011;24269;51.894;4.622;2022-11-23T13:32:59;3.38;;;0.85;;
38499;SDS011;24269;51.894;4.622;2022-11-23T13:35:48;3.10;;;0.93;;
38499;SDS011;24269;51.894;4.622;2022-11-23T13:38:22;7.17;;;1.70;;
38499;SDS011;24269;51.894;4.622;2022-11-23T13:40:51;3.60;;;1.05;;
38499;SDS011;24269;51.894;4.622;2022-11-23T13:43:18;2.00;;;0.90;;
38499;SDS011;24269;51.894;4.622;2022-11-23T13:46:33;7.25;;;1.10;;
38499;SDS011;24269;51.894;4.622;2022-11-23T13:48:57;5.53;;;1.00;;
38499;SDS011;24269;51.894;4.622;2022-11-23T13:51:25;4.32;;;1.30;;
38499;SDS011;24269;51.894;4.622;2022-11-23T13:53:58;3.90;;;0.95;;
38499;SDS011;24269;51.894;4.622;2022-11-23T13:58:57;3.30;;;1.00;;
38499;SDS011;24269;51.894;4.622;2022-11-23T14:04:43;5.80;;;1.13;;
38499;SDS011;24269;51.894;4.622;2022-11-23T14:07:24;6.25;;;1.05;;
38499;SDS011;24269;51.894;4.622;2022-11-23T14:15:22;4.07;;;1.30;;
38499;SDS011;24269;51.894;4.622;2022-11-23T14:26:46;5.80;;;1.13;;
38499;SDS011;24269;51.894;4.622;2022-11-23T14:29:30;4.28;;;1.50;;
38499;SDS011;24269;51.894;4.622;2022-11-23T14:32:31;6.78;;;1.20;;
38499;SDS011;24269;51.894;4.622;2022-11-23T14:35:25;7.38;;;1.48;;
38499;SDS011;24269;51.894;4.622;2022-11-23T14:41:11;5.20;;;1.20;;
38499;SDS011;24269;51.894;4.622;2022-11-23T14:43:42;6.63;;;1.30;;
38499;SDS011;24269;51.894;4.622;2022-11-23T14:46:17;4.88;;;1.30;;
38499;SDS011;24269;51.894;4.622;2022-11-23T14:48:44;3.65;;;1.10;;
38499;SDS011;24269;51.894;4.622;2022-11-23T14:51:11;4.47;;;1.17;;
38499;SDS011;24269;51.894;4.622;2022-11-23T14:53:42;5.50;;;1.40;;
38499;SDS011;24269;51.894;4.622;2022-11-23T14:59:26;3.28;;;1.05;;
38499;SDS011;24269;51.894;4.622;2022-11-23T15:01:59;3.80;;;1.40;;
38499;SDS011;24269;51.894;4.622;2022-11-23T15:04:28;5.65;;;1.13;;
38499;SDS011;24269;51.894;4.622;2022-11-23T15:07:00;3.35;;;1.20;;
38499;SDS011;24269;51.894;4.622;2022-11-23T15:09:37;4.55;;;1.05;;
38499;SDS011;24269;51.894;4.622;2022-11-23T15:14:46;3.22;;;0.98;;
38499;SDS011;24269;51.894;4.622;2022-11-23T15:17:13;7.25;;;1.80;;
38499;SDS011;24269;51.894;4.622;2022-11-23T15:19:51;3.55;;;1.10;;
38499;SDS011;24269;51.894;4.622;2022-11-23T15:22:21;4.88;;;1.65;;
38499;SDS011;24269;51.894;4.622;2022-11-23T15:24:48;4.70;;;1.50;;
38499;SDS011;24269;51.894;4.622;2022-11-23T15:27:15;4.93;;;1.50;;
38499;SDS011;24269;51.894;4.622;2022-11-23T15:29:50;5.20;;;1.67;;
38499;SDS011;24269;51.894;4.622;2022-11-23T15:32:27;4.40;;;1.48;;
38499;SDS011;24269;51.894;4.622;2022-11-23T15:34:55;3.42;;;1.58;;
38499;SDS011;24269;51.894;4.622;2022-11-23T15:37:24;9.40;;;2.00;;
38499;SDS011;24269;51.894;4.622;2022-11-23T15:39:51;3.90;;;1.80;;
38499;SDS011;24269;51.894;4.622;2022-11-23T15:42:19;3.88;;;1.60;;
38499;SDS011;24269;51.894;4.622;2022-11-23T15:44:47;4.03;;;1.65;;
38499;SDS011;24269;51.894;4.622;2022-11-23T15:47:13;4.03;;;1.92;;
38499;SDS011;24269;51.894;4.622;2022-11-23T15:49:44;6.32;;;2.25;;
38499;SDS011;24269;51.894;4.622;2022-11-23T15:52:12;3.47;;;2.08;;
38499;SDS011;24269;51.894;4.622;2022-11-23T15:54:40;7.32;;;2.08;;
38499;SDS011;24269;51.894;4.622;2022-11-23T15:57:06;7.32;;;2.33;;
38499;SDS011;24269;51.894;4.622;2022-11-23T15:59:44;4.05;;;2.17;;
38499;SDS011;24269;51.894;4.622;2022-11-23T16:02:14;4.35;;;2.05;;
38499;SDS011;24269;51.894;4.622;2022-11-23T16:04:41;6.75;;;2.20;;
38499;SDS011;24269;51.894;4.622;2022-11-23T16:07:16;3.67;;;1.95;;
38499;SDS011;24269;51.894;4.622;2022-11-23T16:09:44;4.63;;;2.22;;
38499;SDS011;24269;51.894;4.622;2022-11-23T16:12:22;5.45;;;2.17;;
38499;SDS011;24269;51.894;4.622;2022-11-23T16:14:53;5.20;;;2.13;;
38499;SDS011;24269;51.894;4.622;2022-11-23T16:17:21;4.65;;;2.60;;
38499;SDS011;24269;51.894;4.622;2022-11-23T16:19:49;5.05;;;2.80;;
38499;SDS011;24269;51.894;4.622;2022-11-23T16:22:19;5.50;;;2.22;;
38499;SDS011;24269;51.894;4.622;2022-11-23T16:24:57;5.28;;;2.25;;
38499;SDS011;24269;51.894;4.622;2022-11-23T16:27:26;4.88;;;2.58;;
38499;SDS011;24269;51.894;4.622;2022-11-23T16:29:52;6.53;;;2.38;;
38499;SDS011;24269;51.894;4.622;2022-11-23T16:32:19;4.97;;;2.30;;
38499;SDS011;24269;51.894;4.622;2022-11-23T16:34:50;5.68;;;2.50;;
38499;SDS011;24269;51.894;4.622;2022-11-23T16:37:16;5.95;;;2.50;;
38499;SDS011;24269;51.894;4.622;2022-11-23T16:39:42;4.07;;;2.60;;
38499;SDS011;24269;51.894;4.622;2022-11-23T16:42:11;7.25;;;2.67;;
38499;SDS011;24269;51.894;4.622;2022-11-23T16:44:41;5.47;;;2.72;;
38499;SDS011;24269;51.894;4.622;2022-11-23T16:47:25;5.55;;;3.03;;
38499;SDS011;24269;51.894;4.622;2022-11-23T16:49:52;6.63;;;3.08;;